Latest Coastal Weather Observations for Port Augusta

IDS60701

Issued at 3:31 am CDT Wednesday 28 January 2015 (issued every 10 minutes, with the page automatically refreshed every 10 minutes)

About coastal observations | Map of coastal stations | Coastal observations for SA | Marine services | Other Formats
Station Details ID: 018201 Name: PORT AUGUSTA AERO Lat: -32.51 Lon: 137.72 Height: 13.97 m
Data from the previous 72 hours. | See also: Recent months at Port Augusta
Date/Time
CDT
Temp

°C
Wind Pressure Rain
since 9am
mm
Weather Cloud Vis
km
Sea
Height
m
Swell
Dir
 
Speed
knots
Gust
knots
hPa Trend Height
m
Period
s
Dir
28/03:30am 15.9 SSE 19 23 1013.8 - 0.0 - - - - - - -
28/03:00am 16.2 SSE 18 24 1014.0 - 0.0 - - - - - - -
28/02:30am 16.4 SSE 19 25 1014.3 - 0.0 - - - - - - -
28/02:00am 16.7 SSE 20 26 1014.5 - 0.0 - - - - - - -
28/01:30am 17.1 SSE 21 28 1014.7 - 0.0 - - - - - - -
28/01:00am 17.2 SSE 21 27 1014.7 - 0.0 - - - - - - -
28/12:30am 17.3 SSE 21 28 1014.9 - 0.0 - - - - - - -
28/12:12am 17.4 SSE 21 31 1015.1 - 0.0 - - - - - - -
28/12:00am 17.6 SSE 19 25 1015.0 - 0.0 - - - - - - -
 
Date/Time
CDT
Temp

°C
Wind Pressure Rain
since 9am
mm
Weather Cloud Vis
km
Sea
Height
m
Swell
Dir
 
Speed
knots
Gust
knots
hPa Trend Height
m
Period
s
Dir
27/11:30pm 18.0 SSE 23 31 1015.1 - 0.0 - - - - - - -
27/11:00pm 18.3 SSE 23 29 1015.1 - 0.0 - - - - - - -
27/10:30pm 18.8 SSE 22 29 1015.2 - 0.0 - - - - - - -
27/10:07pm 19.4 S 19 29 1015.1 - 0.0 - - - - - - -
27/10:00pm 19.6 S 21 29 1015.1 - 0.0 - - - - - - -
27/09:30pm 20.4 S 22 30 1014.6 - 0.0 - - - - - - -
27/09:00pm 21.1 S 24 30 1014.1 - 0.0 - - - - - - -
27/08:30pm 21.2 S 20 27 1013.9 - 0.0 - - - - - - -
27/08:14pm 21.6 S 21 31 1013.8 - 0.0 - - - - - - -
27/08:00pm 22.0 SSW 21 27 1013.7 - 0.0 - - - - - - -
27/07:30pm 22.5 S 21 27 1013.2 - 0.0 - - - - - - -
27/07:25pm 23.2 S 21 31 1013.2 - 0.0 - - - - - - -
27/07:00pm 23.7 S 21 28 1013.1 - 0.0 - - - - - - -
27/06:30pm 24.4 S 20 26 1012.9 - 0.0 - - - - - - -
27/06:00pm 25.5 S 20 28 1012.8 - 0.0 - - - - - - -
27/05:30pm 25.6 SSE 17 24 1012.9 - 0.0 - - - - - - -
27/05:00pm 25.9 SSE 19 26 1012.7 - 0.0 - - - - - - -
27/04:30pm 27.2 SSE 19 27 1012.7 - 0.0 - - - - - - -
27/04:00pm 26.5 SSE 19 27 1012.9 - 0.0 - - - - - - -
27/03:33pm 26.9 SSE 15 25 1013.3 - 0.0 - - - - - - -
27/03:30pm 26.3 SSE 16 25 1013.2 - 0.0 - - - - - - -
27/03:00pm 25.1 SSE 15 23 1013.4 - 0.0 - - - - - - -
27/02:30pm 25.7 SE 15 21 1013.9 - 0.0 - - - - - - -
27/02:00pm 26.0 SE 13 20 1014.2 - 0.0 - - - - - - -
27/01:30pm 24.7 ESE 12 19 1014.5 - 0.0 - - - - - - -
27/01:00pm 24.5 SE 13 17 1015.0 - 0.0 - - - - - - -
27/12:30pm 23.7 SSE 12 18 1015.3 - 0.0 - - - - - - -
27/12:00pm 23.1 SSE 13 18 1015.6 - 0.0 - - - - - - -
27/11:30am 23.0 SSE 12 16 1015.9 - 0.0 - - - - - - -
27/11:00am 21.7 SSE 11 15 1016.2 - 0.0 - - - - - - -
27/10:30am 20.8 SE 10 13 1016.4 - 0.0 - - - - - - -
27/10:00am 20.2 SE 9 16 1016.6 - 0.0 - - - - - - -
27/09:30am 19.1 SE 10 13 1016.5 - 0.0 - - - - - - -
27/09:00am 18.5 SE 9 13 1016.4 - 0.0 - - - - - - -
27/08:30am 17.7 SE 9 12 1016.5 - 0.0 - - - - - - -
27/08:00am 16.9 SSE 10 13 1016.4 - 0.0 - - - - - - -
27/07:30am 16.2 SSE 10 15 1016.0 - 0.0 - - - - - - -
27/07:00am 15.1 SSE 10 12 1015.8 - 0.0 - - - - - - -
27/06:30am 14.8 SE 11 16 1015.4 - 0.0 - - - - - - -
27/06:00am 15.4 SSE 13 18 1014.9 - 0.0 - - - - - - -
27/05:30am 15.5 SSE 16 21 1014.8 - 0.0 - - - - - - -
27/05:00am 15.6 SSE 15 20 1014.7 - 0.0 - - - - - - -
27/04:30am 15.7 SSE 16 21 1014.7 - 0.0 - - - - - - -
27/04:00am 16.0 SSE 17 23 1014.6 - 0.0 - - - - - - -
27/03:30am 16.2 SSE 15 20 1014.6 - 0.0 - - - - - - -
27/03:00am 16.2 SSE 15 19 1014.7 - 0.0 - - - - - - -
27/02:30am 16.4 S 15 20 1015.0 - 0.0 - - - - - - -
27/02:00am 16.7 S 14 17 1015.3 - 0.0 - - - - - - -
27/01:30am 17.1 S 14 18 1015.6 - 0.0 - - - - - - -
27/01:00am 17.3 S 14 18 1015.9 - 0.0 - - - - - - -
27/12:30am 17.6 S 14 20 1016.2 - 0.0 - - - - - - -
27/12:00am 17.8 S 15 19 1016.3 - 0.0 - - - - - - -
 
Date/Time
CDT
Temp

°C
Wind Pressure Rain
since 9am
mm
Weather Cloud Vis
km
Sea
Height
m
Swell
Dir
 
Speed
knots
Gust
knots
hPa Trend Height
m
Period
s
Dir
26/11:30pm 18.3 S 16 21 1016.4 - 0.0 - - - - - - -
26/11:00pm 18.4 SSE 15 20 1016.5 - 0.0 - - - - - - -
26/10:30pm 18.6 S 16 20 1016.3 - 0.0 - - - - - - -
26/10:00pm 19.1 S 20 25 1016.0 - 0.0 - - - - - - -
26/09:30pm 19.3 S 21 29 1015.6 - 0.0 - - - - - - -
26/09:00pm 19.5 S 16 23 1015.5 - 0.0 - - - - - - -
26/08:30pm 19.9 S 19 26 1015.3 - 0.0 - - - - - - -
26/08:00pm 20.9 S 18 25 1015.1 - 0.0 - - - - - - -
26/07:30pm 22.1 S 18 23 1014.7 - 0.0 - - - - - - -
26/07:00pm 23.3 S 18 23 1014.5 - 0.0 - - - - - - -
26/06:30pm 23.3 S 17 24 1014.1 - 0.0 - - - - - - -
26/06:00pm 24.4 SSE 18 24 1013.8 - 0.0 - - - - - - -
26/05:30pm 24.7 SSE 19 22 1013.8 - 0.0 - - - - - - -
26/05:18pm 24.8 SSE 18 28 1013.8 - 0.0 - - - - - - -
26/05:00pm 24.7 S 18 24 1013.9 - 0.0 - - - - - - -
26/04:30pm 24.9 SSE 17 25 1014.0 - 0.0 - - - - - - -
26/04:00pm 24.8 S 17 25 1014.1 - 0.0 - - - - - - -
26/03:30pm 25.3 SSE 18 23 1014.1 - 0.0 - - - - - - -
26/03:00pm 25.6 SSE 16 23 1014.4 - 0.0 - - - - - - -
26/02:30pm 24.9 SSE 15 23 1014.6 - 0.0 - - - - - - -
26/02:00pm 24.5 SSE 14 21 1015.0 - 0.0 - - - - - - -
26/01:30pm 23.3 SSE 13 19 1015.5 - 0.0 - - - - - - -
26/01:00pm 23.3 SSE 12 20 1015.7 - 0.0 - - - - - - -
26/12:30pm 23.1 SSE 12 19 1016.1 - 0.0 - - - - - - -
26/12:00pm 22.6 SSE 14 21 1016.3 - 0.0 - - - - - - -
26/11:30am 21.9 SSE 13 22 1016.7 - 0.0 - - - - - - -
26/11:00am 21.2 SSE 14 19 1016.8 - 0.0 - - - - - - -
26/10:30am 21.6 SSE 14 20 1017.0 - 0.0 - - - - - - -
26/10:00am 20.3 SE 14 19 1016.9 - 0.0 - - - - - - -
26/09:30am 19.0 SE 11 15 1017.3 - 0.0 - - - - - - -
26/09:00am 18.2 SE 11 15 1017.2 - 0.0 - - - - - - -
26/08:30am 17.8 ESE 12 15 1017.3 - 0.0 - - - - - - -
26/08:00am 16.7 SE 8 10 1017.1 - 0.0 - - - - - - -
26/07:30am 15.4 SSE 5 8 1016.8 - 0.0 - - - - - - -
26/07:00am 13.2 SSE 5 6 1016.7 - 0.0 - - - - - - -
26/06:30am 14.3 SE 5 7 1016.3 - 0.0 - - - - - - -
26/06:00am 14.3 SE 6 9 1015.9 - 0.0 - - - - - - -
26/05:30am 14.0 S 4 5 1015.7 - 0.0 - - - - - - -
26/05:00am 14.9 SSE 9 12 1015.6 - 0.0 - - - - - - -
26/04:30am 15.3 SSE 8 11 1015.6 - 0.0 - - - - - - -
26/04:00am 16.0 SSE 15 20 1015.4 - 0.0 - - - - - - -
26/03:30am 16.3 SE 15 18 1015.1 - 0.0 - - - - - - -
26/03:00am 16.2 SE 12 16 1015.0 - 0.0 - - - - - - -
26/02:30am 16.3 SE 11 16 1015.1 - 0.0 - - - - - - -
26/02:00am 16.8 SE 10 13 1015.2 - 0.0 - - - - - - -
26/01:30am 17.2 S 14 18 1014.9 - 0.0 - - - - - - -
26/01:00am 17.2 S 12 15 1015.2 - 0.0 - - - - - - -
26/12:30am 17.3 S 14 21 1015.3 - 0.0 - - - - - - -
26/12:00am 17.7 S 16 21 1015.1 - 0.0 - - - - - - -
 
Date/Time
CDT
Temp

°C
Wind Pressure Rain
since 9am
mm
Weather Cloud Vis
km
Sea
Height
m
Swell
Dir
 
Speed
knots
Gust
knots
hPa Trend Height
m
Period
s
Dir
25/11:30pm 17.9 S 19 24 1015.3 - 0.0 - - - - - - -
25/11:00pm 18.2 S 18 23 1015.4 - 0.0 - - - - - - -
25/10:30pm 18.2 S 16 20 1015.3 - 0.0 - - - - - - -
25/10:00pm 18.1 S 16 22 1015.1 - 0.0 - - - - - - -
25/09:30pm 18.4 S 17 23 1014.7 - 0.0 - - - - - - -
25/09:00pm 18.8 S 16 23 1014.3 - 0.0 - - - - - - -
25/08:30pm 19.6 S 17 21 1014.0 - 0.0 - - - - - - -
25/08:00pm 20.5 S 17 20 1013.9 - 0.0 - - - - - - -
25/07:30pm 21.5 S 18 23 1013.5 - 0.0 - - - - - - -
25/07:00pm 22.3 S 18 23 1013.2 - 0.0 - - - - - - -
25/06:30pm 22.5 S 17 22 1013.0 - 0.0 - - - - - - -
25/06:00pm 23.4 SSE 17 26 1012.8 - 0.0 - - - - - - -
25/05:30pm 22.8 SSE 18 24 1013.0 - 0.0 - - - - - - -
25/05:00pm 23.1 SSE 18 24 1013.1 - 0.0 - - - - - - -
25/04:30pm 22.9 SSE 18 24 1013.0 - 0.0 - - - - - - -
25/04:00pm 23.6 SE 20 29 1012.9 - 0.0 - - - - - - -
25/03:51pm 23.5 SSE 19 29 1012.8 - 0.0 - - - - - - -
25/03:30pm 23.7 SSE 19 27 1012.9 - 0.0 - - - - - - -
25/03:00pm 24.0 SSE 21 29 1012.9 - 0.0 - Cloudy - - - - -
25/02:30pm 22.6 SSE 21 34 1013.0 - 0.0 - Partly cloudy - - - - -
25/02:21pm 23.4 SE 21 34 1012.9 - 0.0 - - - - - - -
25/02:19pm 23.7 S 19 29 1013.1 - 0.0 - - - - - - -
25/02:08pm 22.1 SE 22 34 1013.2 - 0.0 - - - - - - -
25/02:06pm 24.2 S 18 34 1013.0 - 0.0 - - - - - - -
25/02:05pm 23.7 S 14 30 1013.3 - 0.0 - - - - - - -
25/02:04pm 23.2 SSE 20 30 1013.2 - 0.0 - - - - - - -
25/02:00pm 23.0 SE 21 30 1013.1 - 0.0 - - - - - - -
25/01:30pm 22.2 SE 21 29 1013.3 - 0.0 - Partly cloudy - - - - -
25/01:00pm 21.8 SE 21 29 1013.3 - 0.0 - Partly cloudy - - - - -
25/12:30pm 21.7 SE 18 26 1013.6 - 0.0 - Partly cloudy - - - - -
25/12:00pm 20.8 SE 18 24 1013.5 - 0.0 - Cloudy - - - - -
25/11:40am 21.0 SSE 17 27 1013.5 - 0.0 - Partly cloudy - - - - -
25/11:30am 21.6 SSE 20 27 1013.5 - 0.0 - Partly cloudy - - - - -
25/11:00am 19.9 SE 16 23 1013.7 - 0.0 - Partly cloudy - - - - -
25/10:30am 20.5 SSE 15 20 1013.5 - 0.0 - Partly cloudy - - - - -
25/10:00am 20.4 SSE 18 23 1013.3 - 0.0 - Partly cloudy - - - - -
25/09:30am 19.9 S 17 24 1013.3 - 0.0 - - - - - - -
25/09:00am 19.4 S 17 22 1013.2 - 0.0 - - - - - - -
25/08:30am 18.5 S 17 20 1013.1 - 0.0 - Partly cloudy - - - - -
25/08:00am 17.5 SSW 16 20 1013.0 - 0.0 - Partly cloudy - - - - -
25/07:30am 17.2 SSW 14 18 1012.7 - 0.0 - Partly cloudy - - - - -
25/07:00am 17.1 S 11 15 1012.1 - 0.0 - Partly cloudy - - - - -
25/06:30am 16.7 S 11 17 1011.8 - 0.0 - Partly cloudy - - - - -
25/06:00am 16.8 SSW 13 17 1010.8 - 0.0 - Cloudy - - - - -
25/05:30am 17.1 S 13 18 1010.5 - 0.0 - Partly cloudy - - - - -
25/05:00am 17.2 SSW 15 20 1010.6 - 0.0 - Partly cloudy - - - - -
25/04:30am 17.4 SSW 15 20 1010.4 - 0.0 - - - - - - -
25/04:00am 17.4 SSW 14 19 1010.2 - 0.0 - - - - - - -

Other Formats:

Comma delimited format used in spreadsheet applications
http://www.bom.gov.au/fwo/IDS60701/IDS60701.95666.axf

JavaScript Object Notation format (JSON) in row-major order
http://www.bom.gov.au/fwo/IDS60701/IDS60701.95666.json